sensor_id;sensor_type;location;lat;lon;timestamp;P1;durP1;ratioP1;P2;durP2;ratioP2
18693;SDS011;9477;51.414;10.362;2022-08-19T00:01:11;24.17;;;21.57;;
18693;SDS011;9477;51.414;10.362;2022-08-19T00:03:15;25.17;;;21.97;;
18693;SDS011;9477;51.414;10.362;2022-08-19T00:05:18;23.37;;;20.80;;
18693;SDS011;9477;51.414;10.362;2022-08-19T00:07:23;22.20;;;19.80;;
18693;SDS011;9477;51.414;10.362;2022-08-19T00:09:26;23.47;;;20.03;;
18693;SDS011;9477;51.414;10.362;2022-08-19T00:11:29;26.03;;;21.80;;
18693;SDS011;9477;51.414;10.362;2022-08-19T00:13:34;24.97;;;21.07;;
18693;SDS011;9477;51.414;10.362;2022-08-19T00:15:36;24.27;;;20.97;;
18693;SDS011;9477;51.414;10.362;2022-08-19T00:17:40;28.17;;;23.27;;
18693;SDS011;9477;51.414;10.362;2022-08-19T00:19:47;27.10;;;21.63;;
18693;SDS011;9477;51.414;10.362;2022-08-19T00:21:50;30.57;;;24.43;;
18693;SDS011;9477;51.414;10.362;2022-08-19T00:23:53;24.93;;;22.20;;
18693;SDS011;9477;51.414;10.362;2022-08-19T00:25:59;30.77;;;22.90;;
18693;SDS011;9477;51.414;10.362;2022-08-19T00:28:02;25.67;;;22.40;;
18693;SDS011;9477;51.414;10.362;2022-08-19T00:30:08;27.53;;;22.30;;
18693;SDS011;9477;51.414;10.362;2022-08-19T00:32:12;25.03;;;22.27;;
18693;SDS011;9477;51.414;10.362;2022-08-19T00:34:18;26.23;;;21.97;;
18693;SDS011;9477;51.414;10.362;2022-08-19T00:36:21;26.90;;;22.13;;
18693;SDS011;9477;51.414;10.362;2022-08-19T00:38:24;26.13;;;21.20;;
18693;SDS011;9477;51.414;10.362;2022-08-19T00:40:38;27.33;;;22.20;;
18693;SDS011;9477;51.414;10.362;2022-08-19T00:42:41;23.80;;;21.17;;
18693;SDS011;9477;51.414;10.362;2022-08-19T00:44:44;24.87;;;22.13;;
18693;SDS011;9477;51.414;10.362;2022-08-19T00:46:49;28.20;;;21.37;;
18693;SDS011;9477;51.414;10.362;2022-08-19T00:48:58;28.53;;;21.33;;
18693;SDS011;9477;51.414;10.362;2022-08-19T00:51:02;27.30;;;22.63;;
18693;SDS011;9477;51.414;10.362;2022-08-19T00:53:07;23.33;;;20.63;;
18693;SDS011;9477;51.414;10.362;2022-08-19T00:55:12;24.23;;;19.30;;
18693;SDS011;9477;51.414;10.362;2022-08-19T00:57:20;25.03;;;20.57;;
18693;SDS011;9477;51.414;10.362;2022-08-19T00:59:28;27.13;;;21.40;;
18693;SDS011;9477;51.414;10.362;2022-08-19T01:01:53;22.63;;;20.03;;
18693;SDS011;9477;51.414;10.362;2022-08-19T01:03:56;24.27;;;18.83;;
18693;SDS011;9477;51.414;10.362;2022-08-19T01:05:59;26.03;;;19.73;;
18693;SDS011;9477;51.414;10.362;2022-08-19T01:08:03;22.50;;;19.83;;
18693;SDS011;9477;51.414;10.362;2022-08-19T01:10:08;26.63;;;21.20;;
18693;SDS011;9477;51.414;10.362;2022-08-19T01:12:14;25.93;;;20.87;;
18693;SDS011;9477;51.414;10.362;2022-08-19T01:14:18;22.83;;;19.30;;
18693;SDS011;9477;51.414;10.362;2022-08-19T01:16:22;24.80;;;19.03;;
18693;SDS011;9477;51.414;10.362;2022-08-19T01:18:29;22.33;;;18.37;;
18693;SDS011;9477;51.414;10.362;2022-08-19T01:20:32;28.73;;;21.80;;
18693;SDS011;9477;51.414;10.362;2022-08-19T01:22:37;24.80;;;19.10;;
18693;SDS011;9477;51.414;10.362;2022-08-19T01:24:44;21.83;;;17.27;;
18693;SDS011;9477;51.414;10.362;2022-08-19T01:26:50;22.30;;;18.33;;
18693;SDS011;9477;51.414;10.362;2022-08-19T01:28:56;23.27;;;19.10;;
18693;SDS011;9477;51.414;10.362;2022-08-19T01:31:01;24.63;;;19.70;;
18693;SDS011;9477;51.414;10.362;2022-08-19T01:33:08;23.23;;;18.97;;
18693;SDS011;9477;51.414;10.362;2022-08-19T01:35:11;22.97;;;19.20;;
18693;SDS011;9477;51.414;10.362;2022-08-19T01:37:15;21.83;;;18.60;;
18693;SDS011;9477;51.414;10.362;2022-08-19T01:39:28;20.60;;;17.33;;
18693;SDS011;9477;51.414;10.362;2022-08-19T01:41:31;21.93;;;17.90;;
18693;SDS011;9477;51.414;10.362;2022-08-19T01:43:35;28.93;;;23.67;;
18693;SDS011;9477;51.414;10.362;2022-08-19T01:45:58;24.20;;;20.63;;
18693;SDS011;9477;51.414;10.362;2022-08-19T01:48:02;20.63;;;17.53;;
18693;SDS011;9477;51.414;10.362;2022-08-19T01:50:07;19.77;;;16.23;;
18693;SDS011;9477;51.414;10.362;2022-08-19T01:52:11;26.67;;;20.83;;
18693;SDS011;9477;51.414;10.362;2022-08-19T01:54:14;22.33;;;18.40;;
18693;SDS011;9477;51.414;10.362;2022-08-19T01:56:29;23.57;;;17.67;;
18693;SDS011;9477;51.414;10.362;2022-08-19T01:58:33;21.83;;;17.77;;
18693;SDS011;9477;51.414;10.362;2022-08-19T02:00:40;24.47;;;19.43;;
18693;SDS011;9477;51.414;10.362;2022-08-19T02:02:46;24.50;;;18.90;;
18693;SDS011;9477;51.414;10.362;2022-08-19T02:04:49;21.73;;;16.10;;
18693;SDS011;9477;51.414;10.362;2022-08-19T02:06:52;20.73;;;18.53;;
18693;SDS011;9477;51.414;10.362;2022-08-19T02:08:55;26.60;;;18.07;;
18693;SDS011;9477;51.414;10.362;2022-08-19T02:10:58;22.23;;;17.03;;
18693;SDS011;9477;51.414;10.362;2022-08-19T02:13:02;27.60;;;19.00;;
18693;SDS011;9477;51.414;10.362;2022-08-19T02:15:06;20.17;;;16.57;;
18693;SDS011;9477;51.414;10.362;2022-08-19T02:17:09;23.07;;;17.23;;
18693;SDS011;9477;51.414;10.362;2022-08-19T02:19:13;19.33;;;15.00;;
18693;SDS011;9477;51.414;10.362;2022-08-19T02:21:16;19.17;;;15.30;;
18693;SDS011;9477;51.414;10.362;2022-08-19T02:23:22;18.73;;;15.00;;
18693;SDS011;9477;51.414;10.362;2022-08-19T02:25:25;22.80;;;15.30;;
18693;SDS011;9477;51.414;10.362;2022-08-19T02:27:28;20.83;;;14.60;;
18693;SDS011;9477;51.414;10.362;2022-08-19T02:29:33;20.77;;;14.47;;
18693;SDS011;9477;51.414;10.362;2022-08-19T02:31:36;18.53;;;14.30;;
18693;SDS011;9477;51.414;10.362;2022-08-19T02:33:38;19.00;;;14.87;;
18693;SDS011;9477;51.414;10.362;2022-08-19T02:35:41;21.90;;;14.13;;
18693;SDS011;9477;51.414;10.362;2022-08-19T02:37:45;18.53;;;14.17;;
18693;SDS011;9477;51.414;10.362;2022-08-19T02:40:06;19.27;;;14.90;;
18693;SDS011;9477;51.414;10.362;2022-08-19T02:42:12;19.13;;;13.50;;
18693;SDS011;9477;51.414;10.362;2022-08-19T02:44:15;22.17;;;15.83;;
18693;SDS011;9477;51.414;10.362;2022-08-19T02:46:33;20.00;;;14.23;;
18693;SDS011;9477;51.414;10.362;2022-08-19T02:48:37;17.53;;;15.20;;
18693;SDS011;9477;51.414;10.362;2022-08-19T02:50:40;19.97;;;13.47;;
18693;SDS011;9477;51.414;10.362;2022-08-19T02:52:54;18.87;;;13.13;;
18693;SDS011;9477;51.414;10.362;2022-08-19T02:54:56;17.93;;;13.50;;
18693;SDS011;9477;51.414;10.362;2022-08-19T02:56:59;15.33;;;12.10;;
18693;SDS011;9477;51.414;10.362;2022-08-19T02:59:02;18.10;;;11.97;;
18693;SDS011;9477;51.414;10.362;2022-08-19T03:01:19;18.37;;;12.73;;
18693;SDS011;9477;51.414;10.362;2022-08-19T03:03:24;20.37;;;12.67;;
18693;SDS011;9477;51.414;10.362;2022-08-19T03:05:28;14.53;;;11.20;;
18693;SDS011;9477;51.414;10.362;2022-08-19T03:07:51;17.63;;;12.80;;
18693;SDS011;9477;51.414;10.362;2022-08-19T03:09:53;15.43;;;11.77;;
18693;SDS011;9477;51.414;10.362;2022-08-19T03:11:56;16.70;;;11.67;;
18693;SDS011;9477;51.414;10.362;2022-08-19T03:13:59;17.90;;;13.83;;
18693;SDS011;9477;51.414;10.362;2022-08-19T03:16:05;15.90;;;11.87;;
18693;SDS011;9477;51.414;10.362;2022-08-19T03:18:08;19.57;;;11.40;;
18693;SDS011;9477;51.414;10.362;2022-08-19T03:20:14;13.63;;;11.73;;
18693;SDS011;9477;51.414;10.362;2022-08-19T03:22:17;17.63;;;12.73;;
18693;SDS011;9477;51.414;10.362;2022-08-19T03:24:20;14.17;;;10.47;;
18693;SDS011;9477;51.414;10.362;2022-08-19T03:26:24;14.03;;;11.57;;
18693;SDS011;9477;51.414;10.362;2022-08-19T03:28:27;18.50;;;11.13;;
18693;SDS011;9477;51.414;10.362;2022-08-19T03:30:30;14.43;;;10.90;;
18693;SDS011;9477;51.414;10.362;2022-08-19T03:32:33;14.87;;;11.00;;
18693;SDS011;9477;51.414;10.362;2022-08-19T03:34:45;14.63;;;10.23;;
18693;SDS011;9477;51.414;10.362;2022-08-19T03:36:49;14.63;;;10.87;;
18693;SDS011;9477;51.414;10.362;2022-08-19T03:38:52;11.83;;;10.23;;
18693;SDS011;9477;51.414;10.362;2022-08-19T03:41:02;17.93;;;12.33;;
18693;SDS011;9477;51.414;10.362;2022-08-19T03:43:07;14.00;;;10.63;;
18693;SDS011;9477;51.414;10.362;2022-08-19T03:45:10;12.73;;;10.27;;
18693;SDS011;9477;51.414;10.362;2022-08-19T03:47:13;17.43;;;11.60;;
18693;SDS011;9477;51.414;10.362;2022-08-19T03:49:18;14.70;;;11.10;;
18693;SDS011;9477;51.414;10.362;2022-08-19T03:51:29;14.73;;;10.93;;
18693;SDS011;9477;51.414;10.362;2022-08-19T03:53:34;16.03;;;10.70;;
18693;SDS011;9477;51.414;10.362;2022-08-19T03:55:38;17.23;;;11.27;;
18693;SDS011;9477;51.414;10.362;2022-08-19T03:57:42;14.93;;;11.93;;
18693;SDS011;9477;51.414;10.362;2022-08-19T03:59:46;17.70;;;12.47;;
18693;SDS011;9477;51.414;10.362;2022-08-19T04:01:49;17.03;;;12.10;;
18693;SDS011;9477;51.414;10.362;2022-08-19T04:03:52;19.13;;;11.57;;
18693;SDS011;9477;51.414;10.362;2022-08-19T04:05:55;18.80;;;13.07;;
18693;SDS011;9477;51.414;10.362;2022-08-19T04:08:00;14.57;;;11.30;;
18693;SDS011;9477;51.414;10.362;2022-08-19T04:10:06;16.33;;;12.60;;
18693;SDS011;9477;51.414;10.362;2022-08-19T04:12:10;16.57;;;12.13;;
18693;SDS011;9477;51.414;10.362;2022-08-19T04:14:15;17.80;;;12.23;;
18693;SDS011;9477;51.414;10.362;2022-08-19T04:16:19;16.13;;;11.83;;
18693;SDS011;9477;51.414;10.362;2022-08-19T04:18:32;15.70;;;11.47;;
18693;SDS011;9477;51.414;10.362;2022-08-19T04:20:41;19.53;;;11.80;;
18693;SDS011;9477;51.414;10.362;2022-08-19T04:22:44;16.90;;;10.80;;
18693;SDS011;9477;51.414;10.362;2022-08-19T04:24:47;19.73;;;12.70;;
18693;SDS011;9477;51.414;10.362;2022-08-19T04:26:51;16.17;;;11.23;;
18693;SDS011;9477;51.414;10.362;2022-08-19T04:28:54;18.07;;;12.80;;
18693;SDS011;9477;51.414;10.362;2022-08-19T04:30:57;16.00;;;12.10;;
18693;SDS011;9477;51.414;10.362;2022-08-19T04:33:00;15.23;;;11.47;;
18693;SDS011;9477;51.414;10.362;2022-08-19T04:35:03;16.20;;;11.70;;
18693;SDS011;9477;51.414;10.362;2022-08-19T04:37:19;19.17;;;11.83;;
18693;SDS011;9477;51.414;10.362;2022-08-19T04:39:23;17.47;;;12.80;;
18693;SDS011;9477;51.414;10.362;2022-08-19T04:41:48;16.90;;;12.73;;
18693;SDS011;9477;51.414;10.362;2022-08-19T04:44:10;14.40;;;11.67;;
18693;SDS011;9477;51.414;10.362;2022-08-19T04:46:13;16.80;;;13.00;;
18693;SDS011;9477;51.414;10.362;2022-08-19T04:48:36;17.60;;;11.50;;
18693;SDS011;9477;51.414;10.362;2022-08-19T04:50:49;14.90;;;12.10;;
18693;SDS011;9477;51.414;10.362;2022-08-19T04:52:54;16.33;;;11.93;;
18693;SDS011;9477;51.414;10.362;2022-08-19T04:54:58;16.47;;;11.83;;
18693;SDS011;9477;51.414;10.362;2022-08-19T04:57:01;15.17;;;11.00;;
18693;SDS011;9477;51.414;10.362;2022-08-19T04:59:06;14.10;;;11.03;;
18693;SDS011;9477;51.414;10.362;2022-08-19T05:01:12;13.77;;;10.87;;
18693;SDS011;9477;51.414;10.362;2022-08-19T05:03:16;14.63;;;10.73;;
18693;SDS011;9477;51.414;10.362;2022-08-19T05:05:19;14.60;;;10.53;;
18693;SDS011;9477;51.414;10.362;2022-08-19T05:07:22;15.77;;;11.13;;
18693;SDS011;9477;51.414;10.362;2022-08-19T05:09:25;18.07;;;12.43;;
18693;SDS011;9477;51.414;10.362;2022-08-19T05:11:44;15.23;;;11.23;;
18693;SDS011;9477;51.414;10.362;2022-08-19T05:13:47;15.83;;;11.13;;
18693;SDS011;9477;51.414;10.362;2022-08-19T05:15:53;21.37;;;12.57;;
18693;SDS011;9477;51.414;10.362;2022-08-19T05:17:58;16.13;;;9.47;;
18693;SDS011;9477;51.414;10.362;2022-08-19T05:20:20;15.80;;;10.33;;
18693;SDS011;9477;51.414;10.362;2022-08-19T05:22:41;15.57;;;10.00;;
18693;SDS011;9477;51.414;10.362;2022-08-19T05:24:45;12.57;;;10.00;;
18693;SDS011;9477;51.414;10.362;2022-08-19T05:27:10;13.50;;;10.20;;
18693;SDS011;9477;51.414;10.362;2022-08-19T05:29:14;11.17;;;8.67;;
18693;SDS011;9477;51.414;10.362;2022-08-19T05:31:18;12.97;;;9.03;;
18693;SDS011;9477;51.414;10.362;2022-08-19T05:33:22;12.27;;;9.47;;
18693;SDS011;9477;51.414;10.362;2022-08-19T05:35:26;14.60;;;9.83;;
18693;SDS011;9477;51.414;10.362;2022-08-19T05:37:34;14.90;;;8.57;;
18693;SDS011;9477;51.414;10.362;2022-08-19T05:39:37;12.40;;;8.40;;
18693;SDS011;9477;51.414;10.362;2022-08-19T05:41:42;12.97;;;9.00;;
18693;SDS011;9477;51.414;10.362;2022-08-19T05:43:45;10.03;;;7.30;;
18693;SDS011;9477;51.414;10.362;2022-08-19T05:45:48;13.63;;;8.17;;
18693;SDS011;9477;51.414;10.362;2022-08-19T05:47:51;8.20;;;7.27;;
18693;SDS011;9477;51.414;10.362;2022-08-19T05:49:56;12.50;;;8.73;;
18693;SDS011;9477;51.414;10.362;2022-08-19T05:52:01;10.67;;;7.63;;
18693;SDS011;9477;51.414;10.362;2022-08-19T05:54:06;12.63;;;7.60;;
18693;SDS011;9477;51.414;10.362;2022-08-19T05:56:10;12.17;;;8.27;;
18693;SDS011;9477;51.414;10.362;2022-08-19T05:58:15;12.10;;;8.17;;
18693;SDS011;9477;51.414;10.362;2022-08-19T06:00:23;11.63;;;8.83;;
18693;SDS011;9477;51.414;10.362;2022-08-19T06:02:26;10.87;;;7.17;;
18693;SDS011;9477;51.414;10.362;2022-08-19T06:04:29;12.53;;;7.80;;
18693;SDS011;9477;51.414;10.362;2022-08-19T06:06:34;10.83;;;7.67;;
18693;SDS011;9477;51.414;10.362;2022-08-19T06:08:37;9.53;;;7.27;;
18693;SDS011;9477;51.414;10.362;2022-08-19T06:10:40;12.03;;;7.10;;
18693;SDS011;9477;51.414;10.362;2022-08-19T06:12:43;11.60;;;7.13;;
18693;SDS011;9477;51.414;10.362;2022-08-19T06:14:46;10.17;;;7.07;;
18693;SDS011;9477;51.414;10.362;2022-08-19T06:17:00;9.93;;;6.63;;
18693;SDS011;9477;51.414;10.362;2022-08-19T06:19:08;9.20;;;6.13;;
18693;SDS011;9477;51.414;10.362;2022-08-19T06:21:13;9.83;;;6.97;;
18693;SDS011;9477;51.414;10.362;2022-08-19T06:23:17;7.67;;;5.83;;
18693;SDS011;9477;51.414;10.362;2022-08-19T06:25:24;9.33;;;6.27;;
18693;SDS011;9477;51.414;10.362;2022-08-19T06:27:30;9.80;;;6.27;;
18693;SDS011;9477;51.414;10.362;2022-08-19T06:29:34;8.73;;;6.33;;
18693;SDS011;9477;51.414;10.362;2022-08-19T06:31:40;8.03;;;5.67;;
18693;SDS011;9477;51.414;10.362;2022-08-19T06:33:44;7.03;;;6.07;;
18693;SDS011;9477;51.414;10.362;2022-08-19T06:35:50;8.57;;;5.40;;
18693;SDS011;9477;51.414;10.362;2022-08-19T06:37:53;7.07;;;5.07;;
18693;SDS011;9477;51.414;10.362;2022-08-19T06:39:57;7.37;;;5.10;;
18693;SDS011;9477;51.414;10.362;2022-08-19T06:42:01;7.63;;;4.90;;
18693;SDS011;9477;51.414;10.362;2022-08-19T06:44:10;7.60;;;4.90;;
18693;SDS011;9477;51.414;10.362;2022-08-19T06:46:13;9.00;;;5.27;;
18693;SDS011;9477;51.414;10.362;2022-08-19T06:48:19;7.63;;;4.80;;
18693;SDS011;9477;51.414;10.362;2022-08-19T06:50:26;7.37;;;4.80;;
18693;SDS011;9477;51.414;10.362;2022-08-19T06:52:29;4.37;;;3.97;;
18693;SDS011;9477;51.414;10.362;2022-08-19T06:54:34;7.17;;;4.80;;
18693;SDS011;9477;51.414;10.362;2022-08-19T06:56:57;5.97;;;4.30;;
18693;SDS011;9477;51.414;10.362;2022-08-19T06:59:03;8.13;;;4.50;;
18693;SDS011;9477;51.414;10.362;2022-08-19T07:01:07;5.97;;;4.07;;
18693;SDS011;9477;51.414;10.362;2022-08-19T07:03:10;5.53;;;4.17;;
18693;SDS011;9477;51.414;10.362;2022-08-19T07:05:14;7.43;;;3.90;;
18693;SDS011;9477;51.414;10.362;2022-08-19T07:07:20;5.60;;;4.00;;
18693;SDS011;9477;51.414;10.362;2022-08-19T07:09:23;5.97;;;3.73;;
18693;SDS011;9477;51.414;10.362;2022-08-19T07:11:30;5.37;;;3.73;;
18693;SDS011;9477;51.414;10.362;2022-08-19T07:13:36;8.10;;;4.30;;
18693;SDS011;9477;51.414;10.362;2022-08-19T07:15:39;4.93;;;3.50;;
18693;SDS011;9477;51.414;10.362;2022-08-19T07:17:42;6.80;;;4.47;;
18693;SDS011;9477;51.414;10.362;2022-08-19T07:19:48;6.37;;;4.00;;
18693;SDS011;9477;51.414;10.362;2022-08-19T07:21:54;5.97;;;4.00;;
18693;SDS011;9477;51.414;10.362;2022-08-19T07:23:58;3.83;;;3.43;;
18693;SDS011;9477;51.414;10.362;2022-08-19T07:26:07;5.33;;;3.87;;
18693;SDS011;9477;51.414;10.362;2022-08-19T07:28:11;5.63;;;3.47;;
18693;SDS011;9477;51.414;10.362;2022-08-19T07:30:26;5.90;;;3.57;;
18693;SDS011;9477;51.414;10.362;2022-08-19T07:32:29;5.13;;;3.83;;
18693;SDS011;9477;51.414;10.362;2022-08-19T07:34:33;4.57;;;3.60;;
18693;SDS011;9477;51.414;10.362;2022-08-19T07:36:40;6.10;;;3.50;;
18693;SDS011;9477;51.414;10.362;2022-08-19T07:38:44;6.50;;;3.57;;
18693;SDS011;9477;51.414;10.362;2022-08-19T07:40:49;6.87;;;3.20;;
18693;SDS011;9477;51.414;10.362;2022-08-19T07:42:52;5.47;;;4.00;;
18693;SDS011;9477;51.414;10.362;2022-08-19T07:44:55;5.53;;;3.50;;
18693;SDS011;9477;51.414;10.362;2022-08-19T07:46:59;5.03;;;3.93;;
18693;SDS011;9477;51.414;10.362;2022-08-19T07:49:05;5.50;;;4.00;;
18693;SDS011;9477;51.414;10.362;2022-08-19T07:51:09;4.00;;;3.20;;
18693;SDS011;9477;51.414;10.362;2022-08-19T07:53:30;4.33;;;3.43;;
18693;SDS011;9477;51.414;10.362;2022-08-19T07:55:39;6.90;;;4.13;;
18693;SDS011;9477;51.414;10.362;2022-08-19T07:57:44;4.70;;;3.70;;
18693;SDS011;9477;51.414;10.362;2022-08-19T07:59:46;6.30;;;3.90;;
18693;SDS011;9477;51.414;10.362;2022-08-19T08:01:50;4.90;;;3.67;;
18693;SDS011;9477;51.414;10.362;2022-08-19T08:03:55;6.77;;;3.70;;
18693;SDS011;9477;51.414;10.362;2022-08-19T08:06:16;6.13;;;3.83;;
18693;SDS011;9477;51.414;10.362;2022-08-19T08:08:37;6.20;;;3.70;;
18693;SDS011;9477;51.414;10.362;2022-08-19T08:10:58;5.53;;;3.57;;
18693;SDS011;9477;51.414;10.362;2022-08-19T08:13:01;4.83;;;3.63;;
18693;SDS011;9477;51.414;10.362;2022-08-19T08:15:11;5.83;;;3.33;;
18693;SDS011;9477;51.414;10.362;2022-08-19T08:17:18;6.33;;;3.10;;
18693;SDS011;9477;51.414;10.362;2022-08-19T08:19:44;5.13;;;3.20;;
18693;SDS011;9477;51.414;10.362;2022-08-19T08:21:52;4.97;;;3.27;;
18693;SDS011;9477;51.414;10.362;2022-08-19T08:23:56;4.70;;;3.30;;
18693;SDS011;9477;51.414;10.362;2022-08-19T08:26:03;6.17;;;3.20;;
18693;SDS011;9477;51.414;10.362;2022-08-19T08:28:06;4.93;;;3.13;;
18693;SDS011;9477;51.414;10.362;2022-08-19T08:30:13;5.80;;;3.40;;
18693;SDS011;9477;51.414;10.362;2022-08-19T08:32:18;5.47;;;3.23;;
18693;SDS011;9477;51.414;10.362;2022-08-19T08:34:21;6.40;;;3.63;;
18693;SDS011;9477;51.414;10.362;2022-08-19T08:36:25;5.13;;;3.47;;
18693;SDS011;9477;51.414;10.362;2022-08-19T08:38:28;5.30;;;3.70;;
18693;SDS011;9477;51.414;10.362;2022-08-19T08:40:42;5.70;;;3.87;;
18693;SDS011;9477;51.414;10.362;2022-08-19T08:42:47;5.47;;;3.97;;
18693;SDS011;9477;51.414;10.362;2022-08-19T08:44:56;5.60;;;3.60;;
18693;SDS011;9477;51.414;10.362;2022-08-19T08:47:02;6.37;;;3.73;;
18693;SDS011;9477;51.414;10.362;2022-08-19T08:49:14;5.27;;;3.47;;
18693;SDS011;9477;51.414;10.362;2022-08-19T08:51:27;5.17;;;3.63;;
18693;SDS011;9477;51.414;10.362;2022-08-19T08:53:35;4.77;;;3.33;;
18693;SDS011;9477;51.414;10.362;2022-08-19T08:55:42;6.67;;;3.10;;
18693;SDS011;9477;51.414;10.362;2022-08-19T08:57:51;4.97;;;3.27;;
18693;SDS011;9477;51.414;10.362;2022-08-19T08:59:57;3.57;;;2.53;;
18693;SDS011;9477;51.414;10.362;2022-08-19T09:02:06;3.20;;;2.50;;
18693;SDS011;9477;51.414;10.362;2022-08-19T09:04:10;4.37;;;2.57;;
18693;SDS011;9477;51.414;10.362;2022-08-19T09:06:17;4.30;;;2.70;;
18693;SDS011;9477;51.414;10.362;2022-08-19T09:08:33;3.87;;;2.63;;
18693;SDS011;9477;51.414;10.362;2022-08-19T09:10:44;3.87;;;2.60;;
18693;SDS011;9477;51.414;10.362;2022-08-19T09:12:57;4.93;;;2.70;;
18693;SDS011;9477;51.414;10.362;2022-08-19T09:15:10;2.80;;;2.27;;
18693;SDS011;9477;51.414;10.362;2022-08-19T09:17:17;2.53;;;2.30;;
18693;SDS011;9477;51.414;10.362;2022-08-19T09:19:29;4.93;;;2.20;;
18693;SDS011;9477;51.414;10.362;2022-08-19T09:21:33;3.90;;;2.20;;
18693;SDS011;9477;51.414;10.362;2022-08-19T09:23:39;9.30;;;2.03;;
18693;SDS011;9477;51.414;10.362;2022-08-19T09:25:44;6.93;;;2.00;;
18693;SDS011;9477;51.414;10.362;2022-08-19T09:27:47;2.83;;;2.10;;
18693;SDS011;9477;51.414;10.362;2022-08-19T09:29:51;4.03;;;2.37;;
18693;SDS011;9477;51.414;10.362;2022-08-19T09:31:55;3.83;;;2.43;;
18693;SDS011;9477;51.414;10.362;2022-08-19T09:33:58;4.77;;;3.00;;
18693;SDS011;9477;51.414;10.362;2022-08-19T09:36:03;3.27;;;2.40;;
18693;SDS011;9477;51.414;10.362;2022-08-19T09:38:08;3.40;;;2.90;;
18693;SDS011;9477;51.414;10.362;2022-08-19T09:40:12;4.23;;;3.00;;
18693;SDS011;9477;51.414;10.362;2022-08-19T09:42:16;4.03;;;2.97;;
18693;SDS011;9477;51.414;10.362;2022-08-19T09:44:30;4.40;;;3.30;;
18693;SDS011;9477;51.414;10.362;2022-08-19T09:46:35;8.03;;;4.40;;
18693;SDS011;9477;51.414;10.362;2022-08-19T09:48:38;5.40;;;3.40;;
18693;SDS011;9477;51.414;10.362;2022-08-19T09:50:42;6.40;;;3.47;;
18693;SDS011;9477;51.414;10.362;2022-08-19T09:52:52;5.87;;;3.57;;
18693;SDS011;9477;51.414;10.362;2022-08-19T09:54:57;4.20;;;3.53;;
18693;SDS011;9477;51.414;10.362;2022-08-19T09:57:08;5.27;;;3.60;;
18693;SDS011;9477;51.414;10.362;2022-08-19T09:59:11;5.67;;;3.50;;
18693;SDS011;9477;51.414;10.362;2022-08-19T10:01:17;5.57;;;3.80;;
18693;SDS011;9477;51.414;10.362;2022-08-19T10:03:22;4.55;;;3.17;;
18693;SDS011;9477;51.414;10.362;2022-08-19T10:05:30;4.63;;;3.37;;
18693;SDS011;9477;51.414;10.362;2022-08-19T10:07:55;3.97;;;3.20;;
18693;SDS011;9477;51.414;10.362;2022-08-19T10:09:58;5.03;;;3.10;;
18693;SDS011;9477;51.414;10.362;2022-08-19T10:12:01;4.90;;;3.17;;
18693;SDS011;9477;51.414;10.362;2022-08-19T10:14:07;4.10;;;3.00;;
18693;SDS011;9477;51.414;10.362;2022-08-19T10:16:12;5.13;;;3.83;;
18693;SDS011;9477;51.414;10.362;2022-08-19T10:18:17;6.47;;;3.20;;
18693;SDS011;9477;51.414;10.362;2022-08-19T10:20:21;6.18;;;3.30;;
18693;SDS011;9477;51.414;10.362;2022-08-19T10:22:24;6.00;;;3.25;;
18693;SDS011;9477;51.414;10.362;2022-08-19T10:24:27;4.05;;;3.40;;
18693;SDS011;9477;51.414;10.362;2022-08-19T10:26:32;4.90;;;2.97;;
18693;SDS011;9477;51.414;10.362;2022-08-19T10:28:38;4.57;;;2.97;;
18693;SDS011;9477;51.414;10.362;2022-08-19T10:30:44;4.50;;;3.70;;
18693;SDS011;9477;51.414;10.362;2022-08-19T10:32:47;5.32;;;3.17;;
18693;SDS011;9477;51.414;10.362;2022-08-19T10:34:49;8.43;;;4.30;;
18693;SDS011;9477;51.414;10.362;2022-08-19T10:36:57;5.63;;;3.95;;
18693;SDS011;9477;51.414;10.362;2022-08-19T10:39:04;3.28;;;2.78;;
18693;SDS011;9477;51.414;10.362;2022-08-19T10:41:10;6.13;;;4.25;;
18693;SDS011;9477;51.414;10.362;2022-08-19T10:43:14;6.75;;;3.38;;
18693;SDS011;9477;51.414;10.362;2022-08-19T10:45:17;6.32;;;2.92;;
18693;SDS011;9477;51.414;10.362;2022-08-19T10:47:26;4.30;;;3.23;;
18693;SDS011;9477;51.414;10.362;2022-08-19T10:49:32;4.65;;;3.38;;
18693;SDS011;9477;51.414;10.362;2022-08-19T10:51:55;6.40;;;4.17;;
18693;SDS011;9477;51.414;10.362;2022-08-19T10:54:20;7.18;;;3.60;;
18693;SDS011;9477;51.414;10.362;2022-08-19T10:56:33;9.43;;;3.78;;
18693;SDS011;9477;51.414;10.362;2022-08-19T10:58:54;6.90;;;3.40;;
18693;SDS011;9477;51.414;10.362;2022-08-19T11:00:58;3.92;;;2.80;;
18693;SDS011;9477;51.414;10.362;2022-08-19T11:03:02;3.65;;;2.95;;
18693;SDS011;9477;51.414;10.362;2022-08-19T11:05:06;4.60;;;2.70;;
18693;SDS011;9477;51.414;10.362;2022-08-19T11:07:13;3.70;;;2.70;;
18693;SDS011;9477;51.414;10.362;2022-08-19T11:09:19;5.00;;;2.95;;
18693;SDS011;9477;51.414;10.362;2022-08-19T11:11:34;3.55;;;3.25;;
18693;SDS011;9477;51.414;10.362;2022-08-19T11:13:41;7.22;;;2.92;;
18693;SDS011;9477;51.414;10.362;2022-08-19T11:15:45;4.95;;;2.97;;
18693;SDS011;9477;51.414;10.362;2022-08-19T11:17:48;4.20;;;3.47;;
18693;SDS011;9477;51.414;10.362;2022-08-19T11:19:54;3.28;;;2.97;;
18693;SDS011;9477;51.414;10.362;2022-08-19T11:21:57;5.57;;;2.70;;
18693;SDS011;9477;51.414;10.362;2022-08-19T11:24:05;6.88;;;2.33;;
18693;SDS011;9477;51.414;10.362;2022-08-19T11:26:09;3.33;;;2.50;;
18693;SDS011;9477;51.414;10.362;2022-08-19T11:28:12;2.30;;;1.90;;
18693;SDS011;9477;51.414;10.362;2022-08-19T11:30:15;5.43;;;2.25;;
18693;SDS011;9477;51.414;10.362;2022-08-19T11:32:18;4.10;;;2.33;;
18693;SDS011;9477;51.414;10.362;2022-08-19T11:34:22;3.08;;;2.17;;
18693;SDS011;9477;51.414;10.362;2022-08-19T11:36:29;4.32;;;2.50;;
18693;SDS011;9477;51.414;10.362;2022-08-19T11:38:33;3.40;;;1.95;;
18693;SDS011;9477;51.414;10.362;2022-08-19T11:40:36;4.93;;;2.33;;
18693;SDS011;9477;51.414;10.362;2022-08-19T11:42:39;4.75;;;2.15;;
18693;SDS011;9477;51.414;10.362;2022-08-19T11:44:57;3.88;;;2.30;;
18693;SDS011;9477;51.414;10.362;2022-08-19T11:47:00;5.68;;;2.08;;
18693;SDS011;9477;51.414;10.362;2022-08-19T11:49:09;4.55;;;2.90;;
18693;SDS011;9477;51.414;10.362;2022-08-19T11:51:16;4.22;;;2.22;;
18693;SDS011;9477;51.414;10.362;2022-08-19T11:53:22;4.20;;;2.20;;
18693;SDS011;9477;51.414;10.362;2022-08-19T11:55:26;3.25;;;2.15;;
18693;SDS011;9477;51.414;10.362;2022-08-19T11:57:28;5.03;;;2.47;;
18693;SDS011;9477;51.414;10.362;2022-08-19T11:59:31;5.65;;;2.17;;
18693;SDS011;9477;51.414;10.362;2022-08-19T12:01:34;5.97;;;2.38;;
18693;SDS011;9477;51.414;10.362;2022-08-19T12:03:37;2.45;;;2.20;;
18693;SDS011;9477;51.414;10.362;2022-08-19T12:05:40;3.55;;;2.40;;
18693;SDS011;9477;51.414;10.362;2022-08-19T12:07:43;2.72;;;2.35;;
18693;SDS011;9477;51.414;10.362;2022-08-19T12:09:47;3.53;;;2.38;;
18693;SDS011;9477;51.414;10.362;2022-08-19T12:11:50;3.10;;;2.17;;
18693;SDS011;9477;51.414;10.362;2022-08-19T12:13:53;3.60;;;2.38;;
18693;SDS011;9477;51.414;10.362;2022-08-19T12:15:56;4.53;;;2.40;;
18693;SDS011;9477;51.414;10.362;2022-08-19T12:17:59;4.68;;;2.40;;
18693;SDS011;9477;51.414;10.362;2022-08-19T12:20:03;3.00;;;2.15;;
18693;SDS011;9477;51.414;10.362;2022-08-19T12:22:07;6.63;;;2.40;;
18693;SDS011;9477;51.414;10.362;2022-08-19T12:24:10;2.90;;;2.10;;
18693;SDS011;9477;51.414;10.362;2022-08-19T12:26:15;4.85;;;1.98;;
18693;SDS011;9477;51.414;10.362;2022-08-19T12:28:18;2.58;;;2.00;;
18693;SDS011;9477;51.414;10.362;2022-08-19T12:30:22;6.00;;;2.20;;